sensor_id;sensor_type;location;lat;lon;timestamp;temperature;humidity
74081;SHT31;62438;52.228;6.864;2022-08-14T00:00:18;22.40;59.09
74081;SHT31;62438;52.228;6.864;2022-08-14T00:02:19;22.40;58.96
74081;SHT31;62438;52.228;6.864;2022-08-14T00:04:19;22.47;58.62
74081;SHT31;62438;52.228;6.864;2022-08-14T00:06:20;22.42;59.21
74081;SHT31;62438;52.228;6.864;2022-08-14T00:08:20;22.43;58.92
74081;SHT31;62438;52.228;6.864;2022-08-14T00:10:21;22.40;59.31
74081;SHT31;62438;52.228;6.864;2022-08-14T00:12:22;22.42;58.85
74081;SHT31;62438;52.228;6.864;2022-08-14T00:14:25;22.33;59.35
74081;SHT31;62438;52.228;6.864;2022-08-14T00:16:26;22.30;59.36
74081;SHT31;62438;52.228;6.864;2022-08-14T00:18:27;22.19;59.96
74081;SHT31;62438;52.228;6.864;2022-08-14T00:20:32;22.15;59.83
74081;SHT31;62438;52.228;6.864;2022-08-14T00:22:33;22.09;60.36
74081;SHT31;62438;52.228;6.864;2022-08-14T00:24:33;22.09;60.55
74081;SHT31;62438;52.228;6.864;2022-08-14T00:26:34;21.95;61.19
74081;SHT31;62438;52.228;6.864;2022-08-14T00:28:35;21.95;60.80
74081;SHT31;62438;52.228;6.864;2022-08-14T00:30:35;21.95;60.58
74081;SHT31;62438;52.228;6.864;2022-08-14T00:32:36;21.89;60.97
74081;SHT31;62438;52.228;6.864;2022-08-14T00:34:37;21.89;60.70
74081;SHT31;62438;52.228;6.864;2022-08-14T00:36:37;21.87;61.02
74081;SHT31;62438;52.228;6.864;2022-08-14T00:38:38;21.80;61.55
74081;SHT31;62438;52.228;6.864;2022-08-14T00:40:38;21.78;61.44
74081;SHT31;62438;52.228;6.864;2022-08-14T00:42:39;21.80;61.21
74081;SHT31;62438;52.228;6.864;2022-08-14T00:44:40;21.68;61.83
74081;SHT31;62438;52.228;6.864;2022-08-14T00:46:40;21.58;62.20
74081;SHT31;62438;52.228;6.864;2022-08-14T00:48:40;21.55;62.13
74081;SHT31;62438;52.228;6.864;2022-08-14T00:50:41;21.53;62.40
74081;SHT31;62438;52.228;6.864;2022-08-14T00:52:41;21.57;62.07
74081;SHT31;62438;52.228;6.864;2022-08-14T00:54:46;21.47;62.73
74081;SHT31;62438;52.228;6.864;2022-08-14T00:56:52;21.57;61.98
74081;SHT31;62438;52.228;6.864;2022-08-14T00:58:52;21.40;62.81
74081;SHT31;62438;52.228;6.864;2022-08-14T01:00:54;21.37;62.93
74081;SHT31;62438;52.228;6.864;2022-08-14T01:02:55;21.29;63.62
74081;SHT31;62438;52.228;6.864;2022-08-14T01:04:57;21.23;64.13
74081;SHT31;62438;52.228;6.864;2022-08-14T01:06:58;21.18;63.67
74081;SHT31;62438;52.228;6.864;2022-08-14T01:09:00;21.09;64.27
74081;SHT31;62438;52.228;6.864;2022-08-14T01:11:01;21.10;64.00
74081;SHT31;62438;52.228;6.864;2022-08-14T01:13:02;21.13;64.08
74081;SHT31;62438;52.228;6.864;2022-08-14T01:15:02;21.06;64.43
74081;SHT31;62438;52.228;6.864;2022-08-14T01:17:04;21.03;64.10
74081;SHT31;62438;52.228;6.864;2022-08-14T01:19:04;20.95;64.48
74081;SHT31;62438;52.228;6.864;2022-08-14T01:21:33;21.04;63.94
74081;SHT31;62438;52.228;6.864;2022-08-14T01:23:36;21.03;64.18
74081;SHT31;62438;52.228;6.864;2022-08-14T01:25:38;21.04;64.52
74081;SHT31;62438;52.228;6.864;2022-08-14T01:27:38;21.00;64.51
74081;SHT31;62438;52.228;6.864;2022-08-14T01:29:45;20.91;64.75
74081;SHT31;62438;52.228;6.864;2022-08-14T01:31:46;21.06;64.33
74081;SHT31;62438;52.228;6.864;2022-08-14T01:33:49;20.89;65.01
74081;SHT31;62438;52.228;6.864;2022-08-14T01:35:50;20.81;65.49
74081;SHT31;62438;52.228;6.864;2022-08-14T01:37:50;20.78;65.59
74081;SHT31;62438;52.228;6.864;2022-08-14T01:39:51;20.86;64.95
74081;SHT31;62438;52.228;6.864;2022-08-14T01:41:52;20.79;65.37
74081;SHT31;62438;52.228;6.864;2022-08-14T01:43:58;20.71;65.64
74081;SHT31;62438;52.228;6.864;2022-08-14T01:46:00;20.72;65.72
74081;SHT31;62438;52.228;6.864;2022-08-14T01:48:00;20.75;65.45
74081;SHT31;62438;52.228;6.864;2022-08-14T01:50:01;20.89;64.80
74081;SHT31;62438;52.228;6.864;2022-08-14T01:52:01;20.76;65.57
74081;SHT31;62438;52.228;6.864;2022-08-14T01:54:08;20.78;65.41
74081;SHT31;62438;52.228;6.864;2022-08-14T01:56:09;20.75;65.60
74081;SHT31;62438;52.228;6.864;2022-08-14T01:58:10;20.76;65.53
74081;SHT31;62438;52.228;6.864;2022-08-14T02:00:14;20.85;65.34
74081;SHT31;62438;52.228;6.864;2022-08-14T02:02:17;20.75;65.96
74081;SHT31;62438;52.228;6.864;2022-08-14T02:04:19;20.78;65.71
74081;SHT31;62438;52.228;6.864;2022-08-14T02:06:20;20.64;66.21
74081;SHT31;62438;52.228;6.864;2022-08-14T02:08:21;20.48;66.87
74081;SHT31;62438;52.228;6.864;2022-08-14T02:10:21;20.40;67.11
74081;SHT31;62438;52.228;6.864;2022-08-14T02:12:22;20.37;67.08
74081;SHT31;62438;52.228;6.864;2022-08-14T02:14:23;20.35;67.12
74081;SHT31;62438;52.228;6.864;2022-08-14T02:16:27;20.48;66.75
74081;SHT31;62438;52.228;6.864;2022-08-14T02:18:28;20.40;67.18
74081;SHT31;62438;52.228;6.864;2022-08-14T02:20:30;20.28;67.61
74081;SHT31;62438;52.228;6.864;2022-08-14T02:22:33;20.44;66.81
74081;SHT31;62438;52.228;6.864;2022-08-14T02:24:34;20.45;67.04
74081;SHT31;62438;52.228;6.864;2022-08-14T02:26:36;20.41;67.00
74081;SHT31;62438;52.228;6.864;2022-08-14T02:28:38;20.44;67.05
74081;SHT31;62438;52.228;6.864;2022-08-14T02:30:39;20.31;67.77
74081;SHT31;62438;52.228;6.864;2022-08-14T02:32:40;20.28;67.58
74081;SHT31;62438;52.228;6.864;2022-08-14T02:34:40;20.20;67.94
74081;SHT31;62438;52.228;6.864;2022-08-14T02:36:42;20.24;67.88
74081;SHT31;62438;52.228;6.864;2022-08-14T02:38:42;20.30;67.54
74081;SHT31;62438;52.228;6.864;2022-08-14T02:40:42;20.23;68.34
74081;SHT31;62438;52.228;6.864;2022-08-14T02:42:43;20.18;68.31
74081;SHT31;62438;52.228;6.864;2022-08-14T02:44:44;20.10;68.32
74081;SHT31;62438;52.228;6.864;2022-08-14T02:46:44;20.06;68.78
74081;SHT31;62438;52.228;6.864;2022-08-14T02:48:45;20.04;68.66
74081;SHT31;62438;52.228;6.864;2022-08-14T02:50:45;19.96;68.82
74081;SHT31;62438;52.228;6.864;2022-08-14T02:52:45;19.93;68.94
74081;SHT31;62438;52.228;6.864;2022-08-14T02:54:46;19.93;68.94
74081;SHT31;62438;52.228;6.864;2022-08-14T02:56:46;19.87;69.47
74081;SHT31;62438;52.228;6.864;2022-08-14T02:58:51;19.86;69.21
74081;SHT31;62438;52.228;6.864;2022-08-14T03:00:52;19.83;69.51
74081;SHT31;62438;52.228;6.864;2022-08-14T03:02:53;19.86;69.32
74081;SHT31;62438;52.228;6.864;2022-08-14T03:04:53;19.86;69.36
74081;SHT31;62438;52.228;6.864;2022-08-14T03:06:55;19.82;69.86
74081;SHT31;62438;52.228;6.864;2022-08-14T03:08:55;19.76;69.88
74081;SHT31;62438;52.228;6.864;2022-08-14T03:10:57;19.82;69.61
74081;SHT31;62438;52.228;6.864;2022-08-14T03:12:58;19.73;69.88
74081;SHT31;62438;52.228;6.864;2022-08-14T03:15:00;19.85;69.69
74081;SHT31;62438;52.228;6.864;2022-08-14T03:17:12;19.76;69.69
74081;SHT31;62438;52.228;6.864;2022-08-14T03:19:14;19.80;69.73
74081;SHT31;62438;52.228;6.864;2022-08-14T03:21:16;19.69;70.36
74081;SHT31;62438;52.228;6.864;2022-08-14T03:23:18;19.58;70.59
74081;SHT31;62438;52.228;6.864;2022-08-14T03:25:19;19.52;71.05
74081;SHT31;62438;52.228;6.864;2022-08-14T03:27:21;19.49;70.99
74081;SHT31;62438;52.228;6.864;2022-08-14T03:29:22;19.44;71.19
74081;SHT31;62438;52.228;6.864;2022-08-14T03:31:23;19.46;71.09
74081;SHT31;62438;52.228;6.864;2022-08-14T03:33:23;19.52;71.13
74081;SHT31;62438;52.228;6.864;2022-08-14T03:35:25;19.63;70.66
74081;SHT31;62438;52.228;6.864;2022-08-14T03:37:25;19.58;70.82
74081;SHT31;62438;52.228;6.864;2022-08-14T03:39:26;19.48;71.14
74081;SHT31;62438;52.228;6.864;2022-08-14T03:41:27;19.55;71.05
74081;SHT31;62438;52.228;6.864;2022-08-14T03:43:27;19.45;71.59
74081;SHT31;62438;52.228;6.864;2022-08-14T03:45:28;19.48;71.58
74081;SHT31;62438;52.228;6.864;2022-08-14T03:47:28;19.41;71.60
74081;SHT31;62438;52.228;6.864;2022-08-14T03:49:29;19.36;71.76
74081;SHT31;62438;52.228;6.864;2022-08-14T03:51:31;19.35;71.98
74081;SHT31;62438;52.228;6.864;2022-08-14T03:53:31;19.38;71.69
74081;SHT31;62438;52.228;6.864;2022-08-14T03:55:33;19.35;71.99
74081;SHT31;62438;52.228;6.864;2022-08-14T03:57:33;19.35;72.00
74081;SHT31;62438;52.228;6.864;2022-08-14T03:59:35;19.31;72.08
74081;SHT31;62438;52.228;6.864;2022-08-14T04:01:39;19.34;71.99
74081;SHT31;62438;52.228;6.864;2022-08-14T04:03:40;19.29;72.20
74081;SHT31;62438;52.228;6.864;2022-08-14T04:05:40;19.22;72.42
74081;SHT31;62438;52.228;6.864;2022-08-14T04:07:41;19.31;72.23
74081;SHT31;62438;52.228;6.864;2022-08-14T04:09:41;19.28;72.43
74081;SHT31;62438;52.228;6.864;2022-08-14T04:11:42;19.29;72.13
74081;SHT31;62438;52.228;6.864;2022-08-14T04:13:43;19.29;72.30
74081;SHT31;62438;52.228;6.864;2022-08-14T04:15:48;19.35;72.22
74081;SHT31;62438;52.228;6.864;2022-08-14T04:17:48;19.35;71.99
74081;SHT31;62438;52.228;6.864;2022-08-14T04:19:49;19.25;72.60
74081;SHT31;62438;52.228;6.864;2022-08-14T04:21:49;19.24;72.94
74081;SHT31;62438;52.228;6.864;2022-08-14T04:23:54;19.08;73.31
74081;SHT31;62438;52.228;6.864;2022-08-14T04:25:55;19.03;73.51
74081;SHT31;62438;52.228;6.864;2022-08-14T04:27:55;19.00;73.70
74081;SHT31;62438;52.228;6.864;2022-08-14T04:29:56;19.06;73.36
74081;SHT31;62438;52.228;6.864;2022-08-14T04:31:56;19.06;73.37
74081;SHT31;62438;52.228;6.864;2022-08-14T04:33:56;19.22;72.92
74081;SHT31;62438;52.228;6.864;2022-08-14T04:35:57;19.21;72.99
74081;SHT31;62438;52.228;6.864;2022-08-14T04:37:57;19.25;72.98
74081;SHT31;62438;52.228;6.864;2022-08-14T04:40:16;19.27;72.98
74081;SHT31;62438;52.228;6.864;2022-08-14T04:42:35;19.21;73.41
74081;SHT31;62438;52.228;6.864;2022-08-14T04:44:54;19.22;73.47
74081;SHT31;62438;52.228;6.864;2022-08-14T04:46:54;19.25;73.19
74081;SHT31;62438;52.228;6.864;2022-08-14T04:49:13;19.24;73.09
74081;SHT31;62438;52.228;6.864;2022-08-14T04:51:15;19.22;73.17
74081;SHT31;62438;52.228;6.864;2022-08-14T04:53:22;19.32;72.94
74081;SHT31;62438;52.228;6.864;2022-08-14T04:55:23;19.38;72.85
74081;SHT31;62438;52.228;6.864;2022-08-14T04:57:23;19.46;72.47
74081;SHT31;62438;52.228;6.864;2022-08-14T04:59:25;19.38;73.05
74081;SHT31;62438;52.228;6.864;2022-08-14T05:01:26;19.44;72.81
74081;SHT31;62438;52.228;6.864;2022-08-14T05:03:28;19.44;72.84
74081;SHT31;62438;52.228;6.864;2022-08-14T05:05:30;19.44;72.84
74081;SHT31;62438;52.228;6.864;2022-08-14T05:07:31;19.48;73.12
74081;SHT31;62438;52.228;6.864;2022-08-14T05:09:32;19.51;72.84
74081;SHT31;62438;52.228;6.864;2022-08-14T05:11:32;19.54;72.97
74081;SHT31;62438;52.228;6.864;2022-08-14T05:13:36;19.59;72.38
74081;SHT31;62438;52.228;6.864;2022-08-14T05:15:37;19.66;72.43
74081;SHT31;62438;52.228;6.864;2022-08-14T05:17:42;19.76;72.01
74081;SHT31;62438;52.228;6.864;2022-08-14T05:19:42;19.82;71.95
74081;SHT31;62438;52.228;6.864;2022-08-14T05:21:43;19.79;72.02
74081;SHT31;62438;52.228;6.864;2022-08-14T05:23:43;19.80;72.18
74081;SHT31;62438;52.228;6.864;2022-08-14T05:25:46;19.93;71.54
74081;SHT31;62438;52.228;6.864;2022-08-14T05:27:46;19.92;71.93
74081;SHT31;62438;52.228;6.864;2022-08-14T05:29:47;19.96;71.49
74081;SHT31;62438;52.228;6.864;2022-08-14T05:31:47;19.94;71.87
74081;SHT31;62438;52.228;6.864;2022-08-14T05:33:48;20.01;71.59
74081;SHT31;62438;52.228;6.864;2022-08-14T05:35:50;20.14;70.97
74081;SHT31;62438;52.228;6.864;2022-08-14T05:37:52;20.24;70.58
74081;SHT31;62438;52.228;6.864;2022-08-14T05:39:53;20.24;70.96
74081;SHT31;62438;52.228;6.864;2022-08-14T05:41:54;20.30;70.42
74081;SHT31;62438;52.228;6.864;2022-08-14T05:43:55;20.45;70.13
74081;SHT31;62438;52.228;6.864;2022-08-14T05:45:57;20.45;70.43
74081;SHT31;62438;52.228;6.864;2022-08-14T05:47:58;20.56;69.73
74081;SHT31;62438;52.228;6.864;2022-08-14T05:49:58;20.65;69.46
74081;SHT31;62438;52.228;6.864;2022-08-14T05:52:00;20.65;69.50
74081;SHT31;62438;52.228;6.864;2022-08-14T05:54:00;20.68;70.23
74081;SHT31;62438;52.228;6.864;2022-08-14T05:56:01;20.76;69.28
74081;SHT31;62438;52.228;6.864;2022-08-14T05:58:05;20.93;68.84
74081;SHT31;62438;52.228;6.864;2022-08-14T06:00:06;20.98;68.38
74081;SHT31;62438;52.228;6.864;2022-08-14T06:02:08;20.95;69.26
74081;SHT31;62438;52.228;6.864;2022-08-14T06:04:09;21.02;69.14
74081;SHT31;62438;52.228;6.864;2022-08-14T06:06:09;21.00;68.94
74081;SHT31;62438;52.228;6.864;2022-08-14T06:08:31;21.16;67.82
74081;SHT31;62438;52.228;6.864;2022-08-14T06:10:31;21.26;68.44
74081;SHT31;62438;52.228;6.864;2022-08-14T06:12:35;21.26;68.29
74081;SHT31;62438;52.228;6.864;2022-08-14T06:14:36;21.40;67.79
74081;SHT31;62438;52.228;6.864;2022-08-14T06:16:37;21.46;67.83
74081;SHT31;62438;52.228;6.864;2022-08-14T06:18:37;21.47;67.39
74081;SHT31;62438;52.228;6.864;2022-08-14T06:20:38;21.60;67.38
74081;SHT31;62438;52.228;6.864;2022-08-14T06:22:40;21.75;66.53
74081;SHT31;62438;52.228;6.864;2022-08-14T06:24:40;21.74;66.91
74081;SHT31;62438;52.228;6.864;2022-08-14T06:26:41;21.85;66.71
74081;SHT31;62438;52.228;6.864;2022-08-14T06:28:41;21.84;67.25
74081;SHT31;62438;52.228;6.864;2022-08-14T06:30:41;21.92;66.10
74081;SHT31;62438;52.228;6.864;2022-08-14T06:32:43;21.94;66.42
74081;SHT31;62438;52.228;6.864;2022-08-14T06:34:43;22.05;66.42
74081;SHT31;62438;52.228;6.864;2022-08-14T06:36:44;22.12;65.56
74081;SHT31;62438;52.228;6.864;2022-08-14T06:38:44;22.23;65.44
74081;SHT31;62438;52.228;6.864;2022-08-14T06:40:45;22.32;65.69
74081;SHT31;62438;52.228;6.864;2022-08-14T06:42:46;22.42;65.40
74081;SHT31;62438;52.228;6.864;2022-08-14T06:44:47;22.50;65.75
74081;SHT31;62438;52.228;6.864;2022-08-14T06:46:47;22.56;65.82
74081;SHT31;62438;52.228;6.864;2022-08-14T06:48:48;22.67;65.04
74081;SHT31;62438;52.228;6.864;2022-08-14T06:50:50;22.77;65.15
74081;SHT31;62438;52.228;6.864;2022-08-14T06:52:51;22.81;64.41
74081;SHT31;62438;52.228;6.864;2022-08-14T06:54:51;22.88;64.30
74081;SHT31;62438;52.228;6.864;2022-08-14T06:56:52;23.14;63.58
74081;SHT31;62438;52.228;6.864;2022-08-14T06:58:52;23.21;63.66
74081;SHT31;62438;52.228;6.864;2022-08-14T07:00:53;23.29;63.05
74081;SHT31;62438;52.228;6.864;2022-08-14T07:03:12;23.38;62.84
74081;SHT31;62438;52.228;6.864;2022-08-14T07:05:31;23.31;63.84
74081;SHT31;62438;52.228;6.864;2022-08-14T07:08:01;23.44;63.18
74081;SHT31;62438;52.228;6.864;2022-08-14T07:10:02;23.59;62.36
74081;SHT31;62438;52.228;6.864;2022-08-14T07:12:04;23.63;62.74
74081;SHT31;62438;52.228;6.864;2022-08-14T07:14:04;23.77;62.55
74081;SHT31;62438;52.228;6.864;2022-08-14T07:16:05;23.92;61.25
74081;SHT31;62438;52.228;6.864;2022-08-14T07:18:07;23.83;61.53
74081;SHT31;62438;52.228;6.864;2022-08-14T07:20:08;23.97;61.68
74081;SHT31;62438;52.228;6.864;2022-08-14T07:22:09;24.14;62.16
74081;SHT31;62438;52.228;6.864;2022-08-14T07:24:10;24.21;62.15
74081;SHT31;62438;52.228;6.864;2022-08-14T07:26:11;24.37;61.54
74081;SHT31;62438;52.228;6.864;2022-08-14T07:28:21;24.57;59.44
74081;SHT31;62438;52.228;6.864;2022-08-14T07:30:22;24.51;58.93
74081;SHT31;62438;52.228;6.864;2022-08-14T07:32:24;24.41;59.32
74081;SHT31;62438;52.228;6.864;2022-08-14T07:34:24;24.50;59.91
74081;SHT31;62438;52.228;6.864;2022-08-14T07:36:25;24.57;58.88
74081;SHT31;62438;52.228;6.864;2022-08-14T07:38:27;24.62;59.40
74081;SHT31;62438;52.228;6.864;2022-08-14T07:40:27;24.69;58.11
74081;SHT31;62438;52.228;6.864;2022-08-14T07:42:28;24.73;59.40
74081;SHT31;62438;52.228;6.864;2022-08-14T07:44:29;24.86;58.55
74081;SHT31;62438;52.228;6.864;2022-08-14T07:46:29;24.79;58.74
74081;SHT31;62438;52.228;6.864;2022-08-14T07:48:30;24.88;59.16
74081;SHT31;62438;52.228;6.864;2022-08-14T07:50:32;24.81;58.50
74081;SHT31;62438;52.228;6.864;2022-08-14T07:52:32;25.00;56.93
74081;SHT31;62438;52.228;6.864;2022-08-14T07:54:33;25.20;56.86
74081;SHT31;62438;52.228;6.864;2022-08-14T07:56:34;25.15;56.94
74081;SHT31;62438;52.228;6.864;2022-08-14T07:58:35;25.18;57.05
74081;SHT31;62438;52.228;6.864;2022-08-14T08:00:37;25.26;56.29
74081;SHT31;62438;52.228;6.864;2022-08-14T08:02:40;25.30;57.15
74081;SHT31;62438;52.228;6.864;2022-08-14T08:04:43;25.31;56.38
74081;SHT31;62438;52.228;6.864;2022-08-14T08:06:44;25.30;56.17
74081;SHT31;62438;52.228;6.864;2022-08-14T08:08:46;25.43;55.92
74081;SHT31;62438;52.228;6.864;2022-08-14T08:10:47;25.70;55.28
74081;SHT31;62438;52.228;6.864;2022-08-14T08:12:49;25.81;54.89
74081;SHT31;62438;52.228;6.864;2022-08-14T08:14:50;25.87;55.42
74081;SHT31;62438;52.228;6.864;2022-08-14T08:16:51;25.99;54.70
74081;SHT31;62438;52.228;6.864;2022-08-14T08:18:51;26.21;53.84
74081;SHT31;62438;52.228;6.864;2022-08-14T08:20:53;26.26;54.21
74081;SHT31;62438;52.228;6.864;2022-08-14T08:22:55;26.29;54.50
74081;SHT31;62438;52.228;6.864;2022-08-14T08:24:57;26.25;54.34
74081;SHT31;62438;52.228;6.864;2022-08-14T08:26:58;26.33;55.50
74081;SHT31;62438;52.228;6.864;2022-08-14T08:28:58;26.39;53.23
74081;SHT31;62438;52.228;6.864;2022-08-14T08:31:00;26.45;53.21
74081;SHT31;62438;52.228;6.864;2022-08-14T08:33:01;26.69;53.19
74081;SHT31;62438;52.228;6.864;2022-08-14T08:35:02;26.72;52.15
74081;SHT31;62438;52.228;6.864;2022-08-14T08:37:02;26.55;52.22
74081;SHT31;62438;52.228;6.864;2022-08-14T08:39:03;26.52;53.08
74081;SHT31;62438;52.228;6.864;2022-08-14T08:41:03;26.53;53.17
74081;SHT31;62438;52.228;6.864;2022-08-14T08:43:06;26.57;52.47
74081;SHT31;62438;52.228;6.864;2022-08-14T08:45:07;26.90;51.00
74081;SHT31;62438;52.228;6.864;2022-08-14T08:47:08;26.57;52.20
74081;SHT31;62438;52.228;6.864;2022-08-14T08:49:08;26.73;52.85
74081;SHT31;62438;52.228;6.864;2022-08-14T08:51:22;27.00;51.30
74081;SHT31;62438;52.228;6.864;2022-08-14T08:53:28;27.22;51.90
74081;SHT31;62438;52.228;6.864;2022-08-14T08:55:38;27.21;50.63
74081;SHT31;62438;52.228;6.864;2022-08-14T08:57:38;27.12;50.64
74081;SHT31;62438;52.228;6.864;2022-08-14T08:59:38;27.18;51.15
74081;SHT31;62438;52.228;6.864;2022-08-14T09:01:39;27.15;51.16
74081;SHT31;62438;52.228;6.864;2022-08-14T09:03:40;27.38;51.57
74081;SHT31;62438;52.228;6.864;2022-08-14T09:07:53;27.55;49.92
74081;SHT31;62438;52.228;6.864;2022-08-14T09:09:54;27.73;49.68
74081;SHT31;62438;52.228;6.864;2022-08-14T09:11:56;27.52;48.59
74081;SHT31;62438;52.228;6.864;2022-08-14T09:13:57;27.65;49.39
74081;SHT31;62438;52.228;6.864;2022-08-14T09:15:59;27.78;48.27
74081;SHT31;62438;52.228;6.864;2022-08-14T09:18:01;27.89;48.03
74081;SHT31;62438;52.228;6.864;2022-08-14T09:20:03;28.03;47.77
74081;SHT31;62438;52.228;6.864;2022-08-14T09:22:05;28.11;47.88
74081;SHT31;62438;52.228;6.864;2022-08-14T09:24:07;28.14;48.32
74081;SHT31;62438;52.228;6.864;2022-08-14T09:26:08;28.24;48.28
74081;SHT31;62438;52.228;6.864;2022-08-14T09:28:09;28.10;48.26
74081;SHT31;62438;52.228;6.864;2022-08-14T09:30:10;28.34;47.46
74081;SHT31;62438;52.228;6.864;2022-08-14T09:32:22;28.33;48.11
74081;SHT31;62438;52.228;6.864;2022-08-14T09:34:50;28.47;46.78
74081;SHT31;62438;52.228;6.864;2022-08-14T09:42:01;28.69;45.89
74081;SHT31;62438;52.228;6.864;2022-08-14T09:46:09;28.28;47.63
74081;SHT31;62438;52.228;6.864;2022-08-14T09:48:15;28.51;47.40
74081;SHT31;62438;52.228;6.864;2022-08-14T09:50:43;28.55;46.52
74081;SHT31;62438;52.228;6.864;2022-08-14T09:54:55;29.07;44.34
74081;SHT31;62438;52.228;6.864;2022-08-14T09:56:56;28.88;46.71
74081;SHT31;62438;52.228;6.864;2022-08-14T09:58:57;29.09;42.90
74081;SHT31;62438;52.228;6.864;2022-08-14T10:01:11;29.06;43.94
74081;SHT31;62438;52.228;6.864;2022-08-14T10:03:22;29.00;44.41
74081;SHT31;62438;52.228;6.864;2022-08-14T10:05:31;29.19;44.35
74081;SHT31;62438;52.228;6.864;2022-08-14T10:07:45;29.40;44.21
74081;SHT31;62438;52.228;6.864;2022-08-14T10:09:55;29.47;44.08
74081;SHT31;62438;52.228;6.864;2022-08-14T10:11:57;29.50;44.04
74081;SHT31;62438;52.228;6.864;2022-08-14T10:14:09;29.43;45.17
74081;SHT31;62438;52.228;6.864;2022-08-14T10:16:10;29.27;45.29
74081;SHT31;62438;52.228;6.864;2022-08-14T10:18:13;29.49;44.10
74081;SHT31;62438;52.228;6.864;2022-08-14T10:20:15;29.50;44.47
74081;SHT31;62438;52.228;6.864;2022-08-14T10:22:24;29.68;44.06
74081;SHT31;62438;52.228;6.864;2022-08-14T10:24:31;29.97;43.98
74081;SHT31;62438;52.228;6.864;2022-08-14T10:26:32;30.31;41.56
74081;SHT31;62438;52.228;6.864;2022-08-14T10:28:41;30.52;42.18
74081;SHT31;62438;52.228;6.864;2022-08-14T10:30:43;30.35;41.12
74081;SHT31;62438;52.228;6.864;2022-08-14T10:32:47;30.59;39.37
74081;SHT31;62438;52.228;6.864;2022-08-14T10:34:49;30.66;40.12
74081;SHT31;62438;52.228;6.864;2022-08-14T10:37:02;30.66;42.08
74081;SHT31;62438;52.228;6.864;2022-08-14T10:39:13;30.87;41.16
74081;SHT31;62438;52.228;6.864;2022-08-14T10:41:17;30.97;40.46
74081;SHT31;62438;52.228;6.864;2022-08-14T10:43:21;30.91;41.22
74081;SHT31;62438;52.228;6.864;2022-08-14T10:45:32;30.51;41.29
74081;SHT31;62438;52.228;6.864;2022-08-14T10:47:34;31.24;40.14
74081;SHT31;62438;52.228;6.864;2022-08-14T10:49:40;31.68;40.18
74081;SHT31;62438;52.228;6.864;2022-08-14T10:52:09;31.69;40.08
74081;SHT31;62438;52.228;6.864;2022-08-14T10:54:09;31.53;38.37
74081;SHT31;62438;52.228;6.864;2022-08-14T10:56:11;31.18;39.60
74081;SHT31;62438;52.228;6.864;2022-08-14T10:58:13;31.25;40.40
74081;SHT31;62438;52.228;6.864;2022-08-14T11:00:16;31.58;40.94
74081;SHT31;62438;52.228;6.864;2022-08-14T11:02:30;31.83;40.75
74081;SHT31;62438;52.228;6.864;2022-08-14T11:04:31;31.65;40.23
74081;SHT31;62438;52.228;6.864;2022-08-14T11:06:34;32.10;39.01
74081;SHT31;62438;52.228;6.864;2022-08-14T11:08:35;32.17;38.16
74081;SHT31;62438;52.228;6.864;2022-08-14T11:10:47;32.31;37.48
74081;SHT31;62438;52.228;6.864;2022-08-14T11:12:54;32.47;37.12
74081;SHT31;62438;52.228;6.864;2022-08-14T11:14:57;32.09;37.33
74081;SHT31;62438;52.228;6.864;2022-08-14T11:17:01;32.44;37.72
74081;SHT31;62438;52.228;6.864;2022-08-14T11:19:02;32.47;37.80
74081;SHT31;62438;52.228;6.864;2022-08-14T11:21:03;32.98;37.33
74081;SHT31;62438;52.228;6.864;2022-08-14T11:23:07;32.88;37.51
74081;SHT31;62438;52.228;6.864;2022-08-14T11:25:10;32.85;37.90
74081;SHT31;62438;52.228;6.864;2022-08-14T11:27:13;32.98;36.83
74081;SHT31;62438;52.228;6.864;2022-08-14T11:29:16;33.19;36.10
74081;SHT31;62438;52.228;6.864;2022-08-14T11:31:21;32.79;35.97
74081;SHT31;62438;52.228;6.864;2022-08-14T11:33:27;33.02;36.89
74081;SHT31;62438;52.228;6.864;2022-08-14T11:35:34;32.85;36.61
74081;SHT31;62438;52.228;6.864;2022-08-14T11:37:36;32.72;36.52
74081;SHT31;62438;52.228;6.864;2022-08-14T11:39:38;32.76;36.27
74081;SHT31;62438;52.228;6.864;2022-08-14T11:41:39;33.27;36.06
74081;SHT31;62438;52.228;6.864;2022-08-14T11:43:43;33.16;35.63
74081;SHT31;62438;52.228;6.864;2022-08-14T11:45:45;32.99;35.53
74081;SHT31;62438;52.228;6.864;2022-08-14T11:47:47;33.02;35.26
74081;SHT31;62438;52.228;6.864;2022-08-14T11:49:48;33.25;35.81
74081;SHT31;62438;52.228;6.864;2022-08-14T11:51:53;33.18;34.92
74081;SHT31;62438;52.228;6.864;2022-08-14T11:53:56;33.23;34.74
74081;SHT31;62438;52.228;6.864;2022-08-14T11:56:01;33.12;35.09
74081;SHT31;62438;52.228;6.864;2022-08-14T11:58:05;33.09;35.69
74081;SHT31;62438;52.228;6.864;2022-08-14T12:00:10;33.11;35.91
74081;SHT31;62438;52.228;6.864;2022-08-14T12:02:13;33.30;35.72
74081;SHT31;62438;52.228;6.864;2022-08-14T12:04:16;33.03;35.52
74081;SHT31;62438;52.228;6.864;2022-08-14T12:06:18;33.29;35.51
74081;SHT31;62438;52.228;6.864;2022-08-14T12:08:19;33.19;35.39
74081;SHT31;62438;52.228;6.864;2022-08-14T12:10:20;33.37;34.38
74081;SHT31;62438;52.228;6.864;2022-08-14T12:12:26;33.52;34.31
74081;SHT31;62438;52.228;6.864;2022-08-14T12:14:26;33.30;35.07
74081;SHT31;62438;52.228;6.864;2022-08-14T12:16:27;33.09;36.36
74081;SHT31;62438;52.228;6.864;2022-08-14T12:18:33;33.74;33.22
74081;SHT31;62438;52.228;6.864;2022-08-14T12:20:38;33.12;35.61
74081;SHT31;62438;52.228;6.864;2022-08-14T12:22:44;33.29;35.08
74081;SHT31;62438;52.228;6.864;2022-08-14T12:24:48;32.85;35.26
74081;SHT31;62438;52.228;6.864;2022-08-14T12:26:55;33.11;35.69
74081;SHT31;62438;52.228;6.864;2022-08-14T12:29:16;33.46;34.19
74081;SHT31;62438;52.228;6.864;2022-08-14T12:31:18;33.46;35.26
74081;SHT31;62438;52.228;6.864;2022-08-14T12:33:20;33.46;34.53
74081;SHT31;62438;52.228;6.864;2022-08-14T12:35:22;33.91;35.30
74081;SHT31;62438;52.228;6.864;2022-08-14T12:37:32;34.55;33.00
74081;SHT31;62438;52.228;6.864;2022-08-14T12:39:35;33.97;33.19
74081;SHT31;62438;52.228;6.864;2022-08-14T12:41:35;33.86;34.00
74081;SHT31;62438;52.228;6.864;2022-08-14T12:43:53;33.61;34.46
74081;SHT31;62438;52.228;6.864;2022-08-14T12:45:55;33.50;35.29
74081;SHT31;62438;52.228;6.864;2022-08-14T12:48:00;33.64;34.57
74081;SHT31;62438;52.228;6.864;2022-08-14T12:50:01;33.13;35.77
74081;SHT31;62438;52.228;6.864;2022-08-14T12:52:03;32.98;35.77
74081;SHT31;62438;52.228;6.864;2022-08-14T12:54:15;32.31;37.10
74081;SHT31;62438;52.228;6.864;2022-08-14T12:56:17;31.83;37.73
74081;SHT31;62438;52.228;6.864;2022-08-14T12:58:19;31.61;37.31
74081;SHT31;62438;52.228;6.864;2022-08-14T13:00:23;30.83;39.14
74081;SHT31;62438;52.228;6.864;2022-08-14T13:02:23;30.55;39.38
74081;SHT31;62438;52.228;6.864;2022-08-14T13:04:25;31.61;38.23
74081;SHT31;62438;52.228;6.864;2022-08-14T13:06:30;32.38;36.48